地図

経路データ

SID SEASON NUMBER BASIN SUBBASIN NAME ISO_TIME NATURE LAT LON WMO_WIND WMO_PRES WMO_AGENCY TRACK_TYPE DIST2LAND LANDFALL IFLAG USA_AGENCY USA_ATCF_ID USA_LAT USA_LON USA_RECORD USA_STATUS USA_WIND USA_PRES USA_SSHS USA_R34_NE USA_R34_SE USA_R34_SW USA_R34_NW USA_R50_NE USA_R50_SE USA_R50_SW USA_R50_NW USA_R64_NE USA_R64_SE USA_R64_SW USA_R64_NW USA_POCI USA_ROCI USA_RMW USA_EYE TOKYO_LAT TOKYO_LON TOKYO_GRADE TOKYO_WIND TOKYO_PRES TOKYO_R50_DIR TOKYO_R50_LONG TOKYO_R50_SHORT TOKYO_R30_DIR TOKYO_R30_LONG TOKYO_R30_SHORT TOKYO_LAND CMA_LAT CMA_LON CMA_CAT CMA_WIND CMA_PRES HKO_LAT HKO_LON HKO_CAT HKO_WIND HKO_PRES NEWDELHI_LAT NEWDELHI_LON NEWDELHI_GRADE NEWDELHI_WIND NEWDELHI_PRES NEWDELHI_CI NEWDELHI_DP NEWDELHI_POCI REUNION_LAT REUNION_LON REUNION_TYPE REUNION_WIND REUNION_PRES REUNION_TNUM REUNION_CI REUNION_RMW REUNION_R34_NE REUNION_R34_SE REUNION_R34_SW REUNION_R34_NW REUNION_R50_NE REUNION_R50_SE REUNION_R50_SW REUNION_R50_NW REUNION_R64_NE REUNION_R64_SE REUNION_R64_SW REUNION_R64_NW BOM_LAT BOM_LON BOM_TYPE BOM_WIND BOM_PRES BOM_TNUM BOM_CI BOM_RMW BOM_R34_NE BOM_R34_SE BOM_R34_SW BOM_R34_NW BOM_R50_NE BOM_R50_SE BOM_R50_SW BOM_R50_NW BOM_R64_NE BOM_R64_SE BOM_R64_SW BOM_R64_NW BOM_ROCI BOM_POCI BOM_EYE BOM_POS_METHOD BOM_PRES_METHOD NADI_LAT NADI_LON NADI_CAT NADI_WIND NADI_PRES WELLINGTON_LAT WELLINGTON_LON WELLINGTON_WIND WELLINGTON_PRES DS824_LAT DS824_LON DS824_STAGE DS824_WIND DS824_PRES TD9636_LAT TD9636_LON TD9636_STAGE TD9636_WIND TD9636_PRES TD9635_LAT TD9635_LON TD9635_WIND TD9635_PRES TD9635_ROCI NEUMANN_LAT NEUMANN_LON NEUMANN_CLASS NEUMANN_WIND NEUMANN_PRES MLC_LAT MLC_LON MLC_CLASS MLC_WIND MLC_PRES USA_GUST BOM_GUST BOM_GUST_PER REUNION_GUST REUNION_GUST_PER USA_SEAHGT USA_SEARAD_NE USA_SEARAD_SE USA_SEARAD_SW USA_SEARAD_NW STORM_SPEED STORM_DIR
1931289N16131 1931 47 WP MM NOT_NAMED 1931-10-15 22:00:00 NR 15.8000 130.800 main 699 682 __________O___ -1 15.8000 130.800 7 6 259
1931289N16131 1931 47 WP MM NOT_NAMED 1931-10-16 00:00:00 NR 15.7594 130.591 main 682 649 __________P___ -1 15.7594 130.591 7 6 259
1931289N16131 1931 47 WP MM NOT_NAMED 1931-10-16 03:00:00 NR 15.7010 130.281 main 649 617 __________P___ -1 15.7010 130.281 7 6 259
1931289N16131 1931 47 WP MM NOT_NAMED 1931-10-16 06:00:00 NR 15.6497 129.980 main 617 592 __________P___ -1 15.6497 129.980 7 6 261
1931289N16131 1931 47 WP MM NOT_NAMED 1931-10-16 09:00:00 NR 15.6099 129.692 main 592 583 __________P___ -1 15.6099 129.692 7 6 262
1931289N16131 1931 47 WP MM NOT_NAMED 1931-10-16 10:00:00 NR 15.6000 129.600 main 583 567 __________O___ -1 15.6000 129.600 7 5 265
1931289N16131 1931 47 WP MM NOT_NAMED 1931-10-16 12:00:00 NR 15.5858 129.422 main 567 550 __________P___ -1 15.5858 129.422 7 5 267
1931289N16131 1931 47 WP MM NOT_NAMED 1931-10-16 15:00:00 NR 15.5772 129.167 main 550 520 __________P___ -1 15.5772 129.167 7 5 269
1931289N16131 1931 47 WP MM NOT_NAMED 1931-10-16 18:00:00 NR 15.5810 128.923 main 520 500 __________P___ -1 15.5810 128.923 7 5 272
1931289N16131 1931 47 WP MM NOT_NAMED 1931-10-16 21:00:00 NR 15.5941 128.681 main 500 490 __________P___ -1 15.5941 128.681 7 5 273
1931289N16131 1931 47 WP MM NOT_NAMED 1931-10-16 22:00:00 NR 15.6000 128.600 main 490 470 __________O___ -1 15.6000 128.600 7 5 273
1931289N16131 1931 47 WP MM NOT_NAMED 1931-10-17 00:00:00 NR 15.6056 128.433 main 470 450 __________P___ -1 15.6056 128.433 7 5 273
1931289N16131 1931 47 WP MM NOT_NAMED 1931-10-17 03:00:00 NR 15.6204 128.183 main 450 421 __________P___ -1 15.6204 128.183 7 5 275
1931289N16131 1931 47 WP MM NOT_NAMED 1931-10-17 06:00:00 NR 15.6453 127.933 main 421 408 __________P___ -1 15.6453 127.933 7 5 277
1931289N16131 1931 47 WP MM NOT_NAMED 1931-10-17 09:00:00 NR 15.6837 127.683 main 408 398 __________P___ -1 15.6837 127.683 7 5 280
1931289N16131 1931 47 WP MM NOT_NAMED 1931-10-17 10:00:00 NR 15.7000 127.600 main 398 380 __________O___ -1 15.7000 127.600 7 5 282
1931289N16131 1931 47 WP MM NOT_NAMED 1931-10-17 12:00:00 NR 15.7332 127.444 main 380 368 __________P___ -1 15.7332 127.444 7 5 284
1931289N16131 1931 47 WP MM NOT_NAMED 1931-10-17 15:00:00 NR 15.7955 127.210 main 368 351 __________P___ -1 15.7955 127.210 7 5 287
1931289N16131 1931 47 WP MM NOT_NAMED 1931-10-17 18:00:00 NR 15.8730 126.965 main 358 333 __________P___ -1 15.8730 126.965 7 5 289
1931289N16131 1931 47 WP MM NOT_NAMED 1931-10-17 21:00:00 NR 15.9657 126.697 main 341 333 __________P___ -1 15.9657 126.697 7 6 290
1931289N16131 1931 47 WP MM NOT_NAMED 1931-10-17 22:00:00 NR 16.0000 126.600 main 333 317 __________O___ -1 16.0000 126.600 3 6 286
1931289N16131 1931 47 WP MM NOT_NAMED 1931-10-18 00:00:00 NR 16.0484 126.387 main 317 297 __________P___ -1 16.0484 126.387 3 7 284
1931289N16131 1931 47 WP MM NOT_NAMED 1931-10-18 03:00:00 NR 16.1330 126.041 main 297 288 __________P___ -1 16.1330 126.041 3 7 287
1931289N16131 1931 47 WP MM NOT_NAMED 1931-10-18 06:00:00 NR 16.2515 125.680 main 298 287 __________P___ -1 16.2515 125.680 3 8 293
1931289N16131 1931 47 WP MM NOT_NAMED 1931-10-18 09:00:00 NR 16.4257 125.318 main 289 289 __________P___ -1 16.4257 125.318 3 8 298
1931289N16131 1931 47 WP MM NOT_NAMED 1931-10-18 10:00:00 NR 16.5000 125.200 main 291 267 __________O___ -1 16.5000 125.200 4 8 306
1931289N16131 1931 47 WP MM NOT_NAMED 1931-10-18 12:00:00 NR 16.6688 124.972 main 267 223 __________P___ -1 16.6688 124.972 4 9 312
1931289N16131 1931 47 WP MM NOT_NAMED 1931-10-18 15:00:00 NR 16.9785 124.637 main 223 194 __________P___ -1 16.9785 124.637 4 9 317
1931289N16131 1931 47 WP MM NOT_NAMED 1931-10-18 18:00:00 NR 17.3449 124.312 main 194 175 __________P___ -1 17.3449 124.312 4 10 322
1931289N16131 1931 47 WP MM NOT_NAMED 1931-10-18 21:00:00 NR 17.7555 124.000 main 178 168 __________P___ -1 17.7555 124.000 4 10 325
1931289N16131 1931 47 WP MM NOT_NAMED 1931-10-18 22:00:00 NR 17.9000 123.900 main 172 148 __________O___ -1 17.9000 123.900 4 11 332
1931289N16131 1931 47 WP MM NOT_NAMED 1931-10-19 00:00:00 NR 18.2242 123.739 main 148 130 __________P___ -1 18.2242 123.739 4 11 336
1931289N16131 1931 47 WP MM NOT_NAMED 1931-10-19 03:00:00 NR 18.7430 123.511 main 130 128 __________P___ -1 18.7430 123.511 4 11 336
1931289N16131 1931 47 WP MM NOT_NAMED 1931-10-19 06:00:00 NR 19.2487 123.258 main 138 138 __________P___ -1 19.2487 123.258 4 11 330
1931289N16131 1931 47 WP MM NOT_NAMED 1931-10-19 09:00:00 NR 19.6819 122.933 main 158 158 __________P___ -1 19.6819 122.933 4 11 322
1931289N16131 1931 47 WP MM NOT_NAMED 1931-10-19 10:00:00 NR 19.8000 122.800 main 165 165 __________O___ -1 19.8000 122.800 4 11 307
1931289N16131 1931 47 WP MM NOT_NAMED 1931-10-19 12:00:00 NR 20.0029 122.480 main 180 179 __________P___ -1 20.0029 122.480 4 11 297
1931289N16131 1931 47 WP MM NOT_NAMED 1931-10-19 15:00:00 NR 20.2195 121.918 main 197 183 __________P___ -1 20.2195 121.918 4 12 286
1931289N16131 1931 47 WP MM NOT_NAMED 1931-10-19 18:00:00 NR 20.3281 121.288 main 183 178 __________P___ -1 20.3281 121.288 4 12 275
1931289N16131 1931 47 WP MM NOT_NAMED 1931-10-19 21:00:00 NR 20.3258 120.623 main 179 179 __________P___ -1 20.3258 120.623 4 13 268
1931289N16131 1931 47 WP MM NOT_NAMED 1931-10-19 22:00:00 NR 20.3000 120.400 main 181 181 __________O___ -1 20.3000 120.400 4 12 257
1931289N16131 1931 47 WP MM NOT_NAMED 1931-10-20 00:00:00 NR 20.1898 119.976 main 197 197 __________P___ -1 20.1898 119.976 4 13 250
1931289N16131 1931 47 WP MM NOT_NAMED 1931-10-20 03:00:00 NR 19.9295 119.329 main 214 214 __________P___ -1 19.9295 119.329 4 13 245
1931289N16131 1931 47 WP MM NOT_NAMED 1931-10-20 06:00:00 NR 19.6273 118.674 main 240 249 __________P___ -1 19.6273 118.674 4 14 245
1931289N16131 1931 47 WP MM NOT_NAMED 1931-10-20 09:00:00 NR 19.3647 118.018 main 295 295 __________P___ -1 19.3647 118.018 4 13 248
1931289N16131 1931 47 WP MM NOT_NAMED 1931-10-20 10:00:00 NR 19.3000 117.800 main 311 311 __________O___ -1 19.3000 117.800 4 13 257
1931289N16131 1931 47 WP MM NOT_NAMED 1931-10-20 12:00:00 NR 19.2171 117.365 main 348 358 __________P___ -1 19.2171 117.365 4 12 264
1931289N16131 1931 47 WP MM NOT_NAMED 1931-10-20 15:00:00 NR 19.1918 116.715 main 402 378 __________P___ -1 19.1918 116.715 4 12 272
1931289N16131 1931 47 WP MM NOT_NAMED 1931-10-20 18:00:00 NR 19.2519 116.066 main 378 343 __________P___ -1 19.2519 116.066 4 12 278
1931289N16131 1931 47 WP MM NOT_NAMED 1931-10-20 21:00:00 NR 19.3599 115.417 main 343 337 __________P___ -1 19.3599 115.417 4 12 280
1931289N16131 1931 47 WP MM NOT_NAMED 1931-10-20 22:00:00 NR 19.4000 115.200 main 337 __________O___ -1 19.4000 115.200 7 13 281

デジタル台風データ・検索

IBTrACS Databaseについて

本データベースは、米国NOAAが公開する1842年以降の世界の熱帯低気圧のベストトラックデータアーカイブInternational Best Track Archive for Climate Stewardship (IBTrACS)を、ウェブで閲覧しやすい形式に変換したものです。

最終更新日:2021-10-25